Airfield :
LOGIN :

Register | Disclaimer

   EN    FR    IT 

 










Legend :    VFR   Marginal VFR   IFR   Intensive IFR   Very Intensive IFR
Visi :
Ceiling :
>= 8 km
>= 3000ft
5 to 8 km
1000 to 3000 ft
1500m to 5 km
500 to 1000 ft
800 to 1500m
200 to 500 ft
< 800m
< 200 ft
Symbols :   Thunderstorms  Fog  Heavy snow  Heavy precipitations  Wind > 20 kt
SIGMETs :     Misc.  Thunderstorms  Icing  Turbulence  Mountain Waves  Volcanic Ashes







- Airport Elevation : 463 ft
- IATA code : SZY
- AIRPORT CLOSED.


EPSY - Szczytno

CURRENT METAR :
  • 111430Z VRB02KT 9999 OVC034 02/M00 Q1011

EXPIRED METARs :
  • 111400Z VRB02KT 9999 FEW010 OVC032 02/M00 Q1011
  • 111330Z VRB03KT 9999 SCT011 OVC030 02/M00 Q1010
  • 111300Z VRB02KT 9999 SCT011 OVC031 02/00 Q1010
  • 111230Z VRB03KT 9999 BKN011 OVC032 02/M00 Q1009
  • 111200Z 13004KT 100V180 9999 BKN012 OVC033 02/M00 Q1009

TAF TAF EPSY
Valid from the 11 at 15:00 until the 12 at 00:00 UTC


111430Z 1115/1124 VRB02KT 9999 OVC030
TEMPO 1116/1124 BKN014
PROB30
TEMPO 1117/1124 5000 -RASN BR BKN004 OVC010
No reported NOTAMs for that airfield.



MET'MAP, your aeronautical weather chart ! - Copyright ORBIFLY December 2007 - Disclaimer

ORBIFLY MET'MAP TEAM :

Programming & Development : Alexandra Zaïnal
Concept & Development : Baudouin d'Aumeries
Co-Development & Prog : Marc-Olivier Méhu
Technical & hardware support : Manuel Goepfert

Contact : metmap@orbifly.com




SOURCES & CREDITS :

   NOAA